Time;durP1;ratioP1;P1;durP2;ratioP2;P2;SDS_P1;SDS_P2;PMS_P1;PMS_P2;Temp;Humidity;BMP_temperature;BMP_pressure;BME280_temperature;BME280_humidity;BME280_pressure;Samples;Min_cycle;Max_cycle;Signal;HPM_P1;HPM_P2
2023/04/28 00:01:25;;;;;;;6.35;2.70;;;7.50;80.80;;;;;;5109436;28;20541;-39
2023/04/28 00:03:50;;;;;;;5.63;2.90;;;7.50;80.20;;;;;;5110927;28;20024;-39
2023/04/28 00:06:16;;;;;;;4.60;2.58;;;7.40;79.50;;;;;;5110221;27;20457;-39
2023/04/28 00:08:41;;;;;;;10.45;3.00;;;7.50;79.70;;;;;;5110185;28;20516;-39
2023/04/28 00:11:10;;;;;;;4.43;2.97;;;7.40;78.60;;;;;;5109997;27;20031;-39
2023/04/28 00:13:36;;;;;;;5.32;2.75;;;7.40;79.10;;;;;;5110321;28;20027;-39
2023/04/28 00:16:02;;;;;;;4.32;2.30;;;7.40;80.40;;;;;;5110132;28;20024;-39
2023/04/28 00:18:27;;;;;;;3.50;2.65;;;7.40;79.30;;;;;;5110337;28;20038;-39
2023/04/28 00:20:54;;;;;;;4.05;2.70;;;7.40;80.40;;;;;;5111551;27;20042;-39
2023/04/28 00:23:20;;;;;;;4.93;2.63;;;7.30;81.90;;;;;;5109987;27;20492;-39
2023/04/28 00:25:53;;;;;;;3.85;2.70;;;7.30;79.90;;;;;;5109555;27;20020;-39
2023/04/28 00:28:20;;;;;;;2.97;2.03;;;7.30;80.70;;;;;;5110935;27;20172;-39
2023/04/28 00:30:46;;;;;;;6.20;2.42;;;7.20;80.10;;;;;;5110171;28;20471;-39
2023/04/28 00:33:12;;;;;;;3.58;2.25;;;7.20;82.80;;;;;;5109811;28;20091;-39
2023/04/28 00:35:38;;;;;;;6.90;2.60;;;7.10;84.00;;;;;;5110268;28;20575;-39
2023/04/28 00:38:03;;;;;;;5.57;2.58;;;7.10;86.50;;;;;;5110254;28;20042;-40
2023/04/28 00:40:36;;;;;;;3.50;2.25;;;7.10;86.40;;;;;;5109602;28;20023;-39
2023/04/28 00:43:03;;;;;;;3.47;2.30;;;7.10;85.40;;;;;;5109586;28;20487;-39
2023/04/28 00:45:28;;;;;;;3.30;2.20;;;7.00;86.00;;;;;;5091319;28;20110;-39
2023/04/28 00:47:57;;;;;;;5.70;2.00;;;7.00;86.10;;;;;;5109779;28;20118;-39
2023/04/28 00:50:24;;;;;;;3.97;2.83;;;7.00;86.30;;;;;;5109422;28;20434;-39
2023/04/28 00:52:51;;;;;;;4.82;2.70;;;7.00;86.50;;;;;;5109479;28;20245;-40
2023/04/28 00:55:17;;;;;;;5.97;2.42;;;7.00;87.60;;;;;;5109839;27;20515;-39
2023/04/28 00:57:43;;;;;;;3.63;2.13;;;6.90;89.90;;;;;;5109422;28;20023;-39
2023/04/28 01:00:09;;;;;;;3.67;2.33;;;6.90;90.10;;;;;;5091275;28;20027;-39
2023/04/28 01:02:35;;;;;;;4.95;2.50;;;6.90;91.30;;;;;;5108458;28;20016;-39
2023/04/28 01:05:02;;;;;;;4.97;2.85;;;6.90;90.60;;;;;;5110198;28;20016;-40
2023/04/28 01:07:28;;;;;;;3.72;2.28;;;6.80;91.40;;;;;;5110425;28;20045;-39
2023/04/28 01:09:54;;;;;;;6.82;2.40;;;6.80;90.60;;;;;;5110766;27;20023;-40
2023/04/28 01:12:19;;;;;;;7.70;3.15;;;6.80;90.80;;;;;;5109494;28;20093;-40
2023/04/28 01:14:45;;;;;;;4.75;2.28;;;6.80;90.40;;;;;;5109599;28;20415;-39
2023/04/28 01:17:11;;;;;;;3.20;2.50;;;6.80;90.60;;;;;;5091064;28;20090;-39
2023/04/28 01:19:37;;;;;;;5.97;2.45;;;6.70;90.40;;;;;;5109254;28;20043;-40
2023/04/28 01:22:03;;;;;;;5.00;2.63;;;6.70;90.20;;;;;;5109368;28;20110;-39
2023/04/28 01:24:29;;;;;;;6.18;3.40;;;6.70;90.20;;;;;;5109161;28;20047;-39
2023/04/28 01:26:54;;;;;;;4.15;3.10;;;6.70;91.00;;;;;;5108788;28;20043;-40
2023/04/28 01:29:20;;;;;;;4.65;2.90;;;6.70;91.00;;;;;;5110854;27;20059;-40
2023/04/28 01:31:46;;;;;;;3.78;2.50;;;6.60;91.00;;;;;;5108579;28;20111;-39
2023/04/28 01:34:11;;;;;;;7.63;3.25;;;6.60;91.30;;;;;;5109156;27;20096;-40
2023/04/28 01:36:37;;;;;;;6.88;3.47;;;6.60;91.50;;;;;;5108826;28;20024;-40
2023/04/28 01:39:03;;;;;;;3.63;2.83;;;6.50;92.10;;;;;;5109060;28;20023;-39
2023/04/28 01:41:29;;;;;;;5.88;2.97;;;6.50;92.10;;;;;;5090001;28;20119;-40
2023/04/28 01:43:54;;;;;;;6.70;3.20;;;6.50;92.30;;;;;;5108931;28;20106;-40
2023/04/28 01:46:20;;;;;;;7.90;3.40;;;6.50;92.40;;;;;;5108623;28;20086;-40
2023/04/28 01:48:46;;;;;;;9.55;3.90;;;6.50;92.30;;;;;;5108358;28;20410;-40
2023/04/28 01:51:12;;;;;;;8.55;3.53;;;6.50;92.40;;;;;;5108321;28;20180;-40
2023/04/28 01:53:37;;;;;;;4.43;3.28;;;6.50;92.90;;;;;;5108679;28;20304;-39
2023/04/28 01:56:03;;;;;;;5.10;3.40;;;6.50;93.70;;;;;;5108806;28;20197;-39
2023/04/28 01:58:28;;;;;;;5.70;2.97;;;6.50;93.40;;;;;;5108304;28;20372;-40
2023/04/28 02:00:54;;;;;;;6.65;3.28;;;6.40;95.00;;;;;;5090160;28;20096;-39
2023/04/28 02:03:20;;;;;;;7.47;3.85;;;6.40;94.40;;;;;;5108158;28;20401;-39
2023/04/28 02:05:45;;;;;;;5.85;3.30;;;6.40;94.90;;;;;;5109368;27;20030;-39
2023/04/28 02:08:11;;;;;;;10.00;3.63;;;6.30;96.20;;;;;;5108014;28;20476;-39
2023/04/28 02:10:36;;;;;;;11.00;4.32;;;6.30;96.30;;;;;;5108193;28;20031;-39
2023/04/28 02:13:01;;;;;;;9.20;3.92;;;6.30;97.20;;;;;;5107513;28;20059;-39
2023/04/28 02:15:27;;;;;;;8.43;4.15;;;6.30;95.90;;;;;;5108040;28;20034;-39
2023/04/28 02:17:53;;;;;;;8.05;3.97;;;6.30;97.40;;;;;;5107986;28;20031;-39
2023/04/28 02:20:18;;;;;;;5.07;3.50;;;6.30;97.70;;;;;;5089306;28;20023;-39
2023/04/28 02:22:44;;;;;;;10.88;5.05;;;6.30;97.40;;;;;;5107540;28;21422;-39
2023/04/28 02:25:10;;;;;;;6.60;3.97;;;6.20;97.60;;;;;;5108093;28;20051;-39
2023/04/28 02:27:35;;;;;;;9.07;3.58;;;6.20;97.70;;;;;;5107822;28;20054;-39
2023/04/28 02:30:05;;;;;;;7.18;3.60;;;6.20;97.80;;;;;;5107723;28;20388;-39
2023/04/28 02:32:30;;;;;;;7.03;4.15;;;6.20;98.00;;;;;;5105490;28;20496;-39
2023/04/28 02:34:56;;;;;;;6.82;4.20;;;6.10;99.30;;;;;;5109017;27;20027;-39
2023/04/28 02:37:22;;;;;;;6.38;4.03;;;6.10;99.90;;;;;;5108002;28;20050;-39
2023/04/28 02:39:48;;;;;;;4.80;3.47;;;6.10;99.90;;;;;;5089277;28;20107;-39
2023/04/28 02:42:13;;;;;;;6.85;3.78;;;6.10;99.90;;;;;;5109324;27;20030;-39
2023/04/28 02:44:39;;;;;;;6.15;3.75;;;6.10;99.90;;;;;;5108078;27;20444;-39
2023/04/28 02:47:05;;;;;;;6.43;3.83;;;6.10;99.80;;;;;;5107237;28;20033;-39
2023/04/28 02:49:30;;;;;;;8.70;3.90;;;6.10;99.90;;;;;;5105050;28;20019;-40
2023/04/28 02:51:56;;;;;;;7.70;4.35;;;6.00;99.90;;;;;;5107521;28;20034;-39
2023/04/28 02:54:26;;;;;;;6.65;4.07;;;6.00;99.90;;;;;;5088025;28;20012;-39
2023/04/28 02:56:56;;;;;;;4.53;3.95;;;6.10;99.90;;;;;;5086632;28;20045;-39
2023/04/28 02:59:22;;;;;;;5.13;3.45;;;6.10;99.90;;;;;;5107073;27;20024;-39
2023/04/28 03:01:48;;;;;;;5.88;3.83;;;6.10;99.90;;;;;;5106503;28;20061;-39
2023/04/28 03:04:14;;;;;;;6.10;4.55;;;6.00;99.90;;;;;;5107728;28;20024;-39
2023/04/28 03:06:40;;;;;;;6.70;3.92;;;6.00;99.90;;;;;;5107248;28;20027;-39
2023/04/28 03:09:06;;;;;;;11.20;4.22;;;6.00;99.90;;;;;;5106771;28;20080;-39
2023/04/28 03:11:31;;;;;;;7.03;4.15;;;6.00;99.90;;;;;;5106522;28;20027;-40
2023/04/28 03:13:57;;;;;;;5.80;4.22;;;5.90;99.90;;;;;;5107151;28;20149;-39
2023/04/28 03:16:22;;;;;;;9.95;4.15;;;5.90;99.90;;;;;;5107236;28;20077;-39
2023/04/28 03:18:48;;;;;;;4.25;3.72;;;5.90;99.90;;;;;;5106865;28;20098;-39
2023/04/28 03:21:13;;;;;;;7.35;4.07;;;5.90;99.90;;;;;;5107219;28;20032;-39
2023/04/28 03:23:39;;;;;;;11.05;4.53;;;5.80;99.90;;;;;;5108892;28;20078;-39
2023/04/28 03:26:05;;;;;;;7.75;4.75;;;5.80;99.90;;;;;;5106373;28;20106;-39
2023/04/28 03:28:30;;;;;;;8.30;4.75;;;5.80;99.90;;;;;;5087704;28;20072;-39
2023/04/28 03:30:56;;;;;;;11.68;5.35;;;5.70;99.90;;;;;;5106331;28;20384;-40
2023/04/28 03:33:22;;;;;;;8.40;4.00;;;5.70;99.90;;;;;;5106463;28;20030;-39
2023/04/28 03:35:47;;;;;;;7.05;4.03;;;5.70;99.90;;;;;;5106520;28;20024;-39
2023/04/28 03:38:13;;;;;;;9.13;4.50;;;5.70;99.90;;;;;;5106069;28;20034;-39
2023/04/28 03:40:39;;;;;;;7.35;4.53;;;5.70;99.90;;;;;;5106498;28;20388;-39
2023/04/28 03:43:04;;;;;;;6.47;4.20;;;5.70;99.90;;;;;;5106455;28;20023;-39
2023/04/28 03:45:30;;;;;;;8.75;4.30;;;5.60;99.90;;;;;;5106513;28;20388;-39
2023/04/28 03:47:55;;;;;;;12.93;4.95;;;5.60;99.90;;;;;;5106464;28;20011;-39
2023/04/28 03:50:21;;;;;;;8.63;4.85;;;5.60;99.90;;;;;;5106478;28;20039;-39
2023/04/28 03:52:46;;;;;;;10.80;5.22;;;5.60;99.90;;;;;;5106443;28;20024;-39
2023/04/28 03:55:12;;;;;;;10.93;4.88;;;5.60;99.90;;;;;;5107083;28;20015;-39
2023/04/28 03:57:38;;;;;;;23.80;5.35;;;5.60;99.90;;;;;;5106983;28;20031;-39
2023/04/28 04:00:04;;;;;;;8.68;5.05;;;5.60;99.90;;;;;;5105985;28;20027;-39
2023/04/28 04:02:29;;;;;;;11.45;4.82;;;5.60;99.90;;;;;;5106556;28;20077;-39
2023/04/28 04:04:55;;;;;;;11.25;5.32;;;5.60;99.90;;;;;;5090007;28;20456;-39
2023/04/28 04:07:22;;;;;;;10.50;5.25;;;5.60;99.90;;;;;;5087681;28;20016;-39
2023/04/28 04:09:47;;;;;;;6.90;5.20;;;5.70;99.90;;;;;;5087826;28;20118;-39
2023/04/28 04:12:13;;;;;;;7.93;4.97;;;5.70;99.90;;;;;;5106053;28;20098;-39
2023/04/28 04:14:39;;;;;;;15.35;5.40;;;5.70;99.90;;;;;;5105994;28;20024;-39
2023/04/28 04:17:05;;;;;;;9.18;4.60;;;5.80;99.90;;;;;;5107034;28;20050;-40
2023/04/28 04:19:30;;;;;;;10.32;5.00;;;5.80;99.90;;;;;;5106793;28;20055;-38
2023/04/28 04:21:55;;;;;;;8.85;5.57;;;5.80;99.90;;;;;;5106612;28;20044;-39
2023/04/28 04:24:21;;;;;;;7.82;5.32;;;5.80;99.90;;;;;;5107278;28;20031;-39
2023/04/28 04:26:46;;;;;;;14.90;5.95;;;5.80;99.90;;;;;;5107519;28;20016;-39
2023/04/28 04:29:12;;;;;;;10.73;5.20;;;5.90;99.90;;;;;;5106749;28;20044;-39
2023/04/28 04:31:37;;;;;;;8.82;5.00;;;5.90;99.90;;;;;;5106707;28;20027;-39
2023/04/28 04:34:03;;;;;;;7.03;4.85;;;5.90;99.90;;;;;;5106977;28;20497;-39
2023/04/28 04:36:29;;;;;;;10.32;5.65;;;5.90;99.90;;;;;;5087565;28;20074;-39
2023/04/28 04:38:55;;;;;;;13.07;5.13;;;6.00;99.90;;;;;;5105277;27;20031;-39
2023/04/28 04:41:20;;;;;;;8.90;5.10;;;6.00;99.90;;;;;;5110072;28;20463;-39
2023/04/28 04:43:46;;;;;;;9.25;5.75;;;6.00;99.90;;;;;;5110597;28;20026;-39
2023/04/28 04:46:12;;;;;;;7.50;5.15;;;6.00;99.90;;;;;;5110135;28;20024;-39
2023/04/28 04:48:38;;;;;;;12.52;5.40;;;6.10;99.90;;;;;;5109969;28;20042;-39
2023/04/28 04:51:03;;;;;;;8.93;5.80;;;6.10;99.90;;;;;;5110198;28;20504;-39
2023/04/28 04:53:29;;;;;;;13.65;5.72;;;6.10;99.90;;;;;;5091368;28;20035;-39
2023/04/28 04:55:54;;;;;;;12.80;5.80;;;6.20;99.90;;;;;;5123600;27;20060;-39
2023/04/28 04:58:20;;;;;;;10.30;5.75;;;6.30;99.90;;;;;;5129988;27;20213;-39
2023/04/28 05:00:45;;;;;;;8.68;5.88;;;6.30;99.90;;;;;;5129473;27;20027;-39
2023/04/28 05:03:11;;;;;;;10.93;6.30;;;6.30;99.90;;;;;;5121665;27;20038;-39
2023/04/28 05:05:37;;;;;;;10.05;5.82;;;6.30;99.90;;;;;;5109225;28;20473;-39
2023/04/28 05:08:02;;;;;;;12.25;5.43;;;6.30;99.90;;;;;;5109358;28;20445;-39
2023/04/28 05:10:28;;;;;;;11.20;5.80;;;6.30;99.90;;;;;;5109556;28;20520;-39
2023/04/28 05:12:54;;;;;;;9.68;5.00;;;6.30;99.90;;;;;;5109437;28;20035;-39
2023/04/28 05:15:19;;;;;;;14.38;6.25;;;6.30;99.90;;;;;;5093530;28;20112;-39
2023/04/28 05:17:45;;;;;;;11.13;5.65;;;6.30;99.90;;;;;;5109892;28;20051;-39
2023/04/28 05:20:10;;;;;;;13.45;5.50;;;6.30;99.90;;;;;;5113483;27;20166;-39
2023/04/28 05:22:36;;;;;;;12.20;6.05;;;6.30;99.90;;;;;;5110830;27;20105;-40
2023/04/28 05:25:01;;;;;;;9.07;5.20;;;6.30;99.90;;;;;;5109538;28;20419;-40
2023/04/28 05:27:27;;;;;;;12.75;5.75;;;6.30;99.90;;;;;;5112061;27;20027;-40
2023/04/28 05:29:52;;;;;;;7.57;5.00;;;6.30;99.90;;;;;;5091058;28;20023;-39
2023/04/28 05:32:18;;;;;;;14.35;5.97;;;6.40;99.90;;;;;;5086967;28;20035;-40
2023/04/28 05:38:06;;;;;;;12.02;5.88;;;6.40;99.90;;;;;;5104737;28;20026;-39
2023/04/28 05:40:32;;;;;;;17.00;6.20;;;6.50;99.90;;;;;;5111221;27;20330;-39
2023/04/28 05:42:57;;;;;;;11.48;6.35;;;6.50;99.90;;;;;;5104053;27;20028;-39
2023/04/28 05:45:23;;;;;;;22.17;7.82;;;6.50;99.90;;;;;;5092361;28;20016;-39
2023/04/28 05:47:49;;;;;;;11.27;6.45;;;6.60;99.90;;;;;;5090500;28;20077;-39
2023/04/28 05:50:15;;;;;;;11.70;5.90;;;6.70;99.90;;;;;;5092097;28;20024;-39
2023/04/28 05:52:40;;;;;;;10.27;6.03;;;6.80;99.90;;;;;;5092015;28;20039;-39
2023/04/28 05:55:07;;;;;;;12.13;6.45;;;6.90;99.90;;;;;;5090562;28;20034;-39
2023/04/28 05:57:33;;;;;;;11.48;5.65;;;7.00;99.90;;;;;;5091878;28;20082;-39
2023/04/28 05:59:58;;;;;;;8.55;5.65;;;7.20;99.90;;;;;;5091805;28;20501;-39
